createdAt,value
2018-05-06T05:54:36.346Z,14.20
2018-05-06T05:57:03.811Z,14.30
2018-05-06T05:59:31.246Z,14.40
2018-05-06T06:01:58.818Z,14.60
2018-05-06T06:04:26.262Z,14.90
2018-05-06T06:06:53.749Z,15.00
2018-05-06T06:09:21.194Z,14.90
2018-05-06T06:11:48.763Z,15.00
2018-05-06T06:14:16.220Z,15.30
2018-05-06T06:16:43.772Z,15.40
2018-05-06T06:19:11.238Z,15.30
2018-05-06T06:21:38.862Z,15.60
2018-05-06T06:24:06.354Z,15.60
2018-05-06T06:26:34.578Z,16.20
2018-05-06T06:29:02.019Z,16.20
2018-05-06T06:31:29.485Z,16.10
2018-05-06T06:33:56.956Z,16.40
2018-05-06T06:36:24.397Z,16.30
2018-05-06T06:38:51.857Z,16.50
2018-05-06T06:41:19.327Z,16.70
2018-05-06T06:43:46.873Z,17.00
2018-05-06T06:46:14.329Z,17.20
2018-05-06T06:48:41.821Z,17.30
2018-05-06T06:51:09.360Z,17.40
2018-05-06T06:53:36.931Z,17.60
2018-05-06T06:56:04.395Z,18.00
2018-05-06T06:58:31.938Z,18.30
2018-05-06T07:00:59.481Z,18.50
2018-05-06T07:03:26.935Z,18.60
2018-05-06T07:05:54.441Z,18.10
2018-05-06T07:08:21.946Z,18.10
2018-05-06T07:10:49.419Z,18.40
2018-05-06T07:13:16.849Z,18.40
2018-05-06T07:15:44.433Z,18.40
2018-05-06T07:18:11.876Z,18.60
2018-05-06T07:20:39.320Z,18.30
2018-05-06T07:23:06.903Z,18.50
2018-05-06T07:25:34.342Z,18.60
2018-05-06T07:28:01.806Z,18.50
2018-05-06T07:30:29.360Z,18.80
2018-05-06T07:32:57.842Z,18.90
2018-05-06T07:35:25.412Z,19.10
2018-05-06T07:37:52.868Z,19.30
2018-05-06T07:40:20.415Z,19.40
2018-05-06T07:42:47.946Z,19.40
2018-05-06T07:45:15.421Z,19.70
2018-05-06T07:47:42.874Z,20.00
2018-05-06T07:50:10.333Z,20.60
2018-05-06T07:52:37.788Z,20.60
2018-05-06T07:55:05.553Z,20.90
2018-05-06T07:57:32.997Z,21.00
2018-05-06T08:00:00.466Z,20.60
2018-05-06T08:02:28.095Z,20.60
2018-05-06T08:04:55.582Z,20.70
2018-05-06T08:07:23.074Z,20.70
2018-05-06T08:09:51.691Z,21.10
2018-05-06T08:12:19.764Z,21.10
2018-05-06T08:14:47.369Z,21.20
2018-05-06T08:17:14.813Z,21.50
2018-05-06T08:19:42.268Z,21.70
2018-05-06T08:22:09.831Z,21.50
2018-05-06T08:24:38.388Z,21.60
2018-05-06T08:27:05.849Z,21.40
2018-05-06T08:29:33.425Z,21.50
2018-05-06T08:32:02.374Z,21.60
2018-05-06T08:34:29.867Z,21.60
2018-05-06T08:36:58.308Z,21.70
2018-05-06T08:39:26.073Z,22.00
2018-05-06T08:41:53.569Z,21.90
2018-05-06T08:44:21.147Z,21.70
2018-05-06T08:46:48.601Z,21.90
2018-05-06T08:49:16.149Z,22.20
2018-05-06T08:51:43.606Z,22.50
2018-05-06T08:54:11.148Z,22.40
2018-05-06T08:56:38.597Z,22.60
2018-05-06T08:59:06.053Z,22.70
2018-05-06T09:01:33.493Z,22.90
2018-05-06T09:04:02.370Z,23.10
2018-05-06T09:06:29.807Z,23.50
2018-05-06T09:08:57.313Z,23.40
2018-05-06T09:11:24.925Z,23.70
2018-05-06T09:13:53.294Z,23.60
2018-05-06T09:16:20.741Z,24.00
2018-05-06T09:18:48.967Z,24.10
2018-05-06T09:21:16.431Z,24.10
2018-05-06T09:23:43.984Z,23.60
2018-05-06T09:26:11.414Z,23.60
2018-05-06T09:28:38.905Z,23.80
2018-05-06T09:31:07.384Z,23.90
2018-05-06T09:33:34.922Z,24.00
2018-05-06T09:36:02.378Z,24.00
2018-05-06T09:38:29.837Z,24.10
2018-05-06T09:40:57.277Z,24.10
2018-05-06T09:43:24.726Z,24.30
2018-05-06T09:45:52.164Z,24.50
2018-05-06T09:48:19.646Z,24.10
2018-05-06T09:50:47.146Z,24.00
2018-05-06T09:53:14.886Z,24.10
2018-05-06T09:55:42.325Z,24.20
2018-05-06T09:58:09.757Z,24.30
2018-05-06T10:00:37.205Z,24.30
2018-05-06T10:03:05.654Z,24.50
2018-05-06T10:05:33.118Z,24.70
2018-05-06T10:08:01.354Z,25.10
2018-05-06T10:10:28.798Z,25.10
2018-05-06T10:12:56.363Z,24.60
2018-05-06T10:15:23.802Z,24.50
2018-05-06T10:17:51.821Z,24.30
2018-05-06T10:20:19.287Z,24.60
2018-05-06T10:22:47.510Z,25.40
2018-05-06T10:25:14.958Z,25.40
2018-05-06T10:27:42.400Z,25.40
2018-05-06T10:30:09.839Z,25.30
2018-05-06T10:32:37.312Z,25.60
2018-05-06T10:35:04.769Z,25.90
2018-05-06T10:37:32.210Z,26.00
2018-05-06T10:39:59.729Z,26.10
2018-05-06T10:42:27.388Z,26.40
2018-05-06T10:44:54.871Z,26.60
2018-05-06T10:47:23.115Z,26.20
2018-05-06T10:49:50.540Z,26.20
2018-05-06T10:52:18.010Z,26.10
2018-05-06T10:54:45.561Z,25.90
2018-05-06T10:57:13.435Z,26.00
2018-05-06T10:59:40.975Z,25.50
2018-05-06T11:02:08.406Z,25.90
2018-05-06T11:04:35.913Z,26.40
2018-05-06T11:07:03.456Z,26.70
2018-05-06T11:09:30.917Z,26.50
2018-05-06T11:11:58.471Z,26.70
2018-05-06T11:14:25.926Z,26.80
2018-05-06T11:16:53.467Z,26.70
2018-05-06T11:19:20.997Z,26.40
2018-05-06T11:21:49.189Z,26.10
2018-05-06T11:24:17.530Z,26.40
2018-05-06T11:26:45.758Z,26.60
2018-05-06T11:29:13.394Z,26.60
2018-05-06T11:31:40.866Z,26.50
2018-05-06T11:34:09.165Z,26.60
2018-05-06T11:36:36.771Z,26.60
2018-05-06T11:39:04.273Z,26.40
2018-05-06T11:41:31.758Z,26.50
2018-05-06T11:43:59.198Z,26.70
2018-05-06T11:46:26.732Z,27.10
2018-05-06T11:48:54.931Z,27.00
2018-05-06T11:51:23.217Z,27.10
2018-05-06T11:53:51.462Z,27.40
2018-05-06T11:56:19.029Z,27.30
2018-05-06T11:58:47.185Z,27.30
2018-05-06T12:01:14.643Z,27.20
2018-05-06T12:03:43.063Z,27.30
2018-05-06T12:06:11.293Z,27.20
2018-05-06T12:08:38.935Z,27.20
2018-05-06T12:11:06.407Z,27.20
2018-05-06T12:13:33.868Z,27.00
2018-05-06T12:16:01.557Z,27.20
2018-05-06T12:18:29.789Z,27.40
2018-05-06T12:20:57.238Z,27.40
2018-05-06T12:23:24.689Z,27.50
2018-05-06T12:25:52.198Z,27.90
2018-05-06T12:28:19.669Z,27.80
2018-05-06T12:30:47.878Z,27.80
2018-05-06T12:33:15.454Z,27.80
2018-05-06T12:35:42.926Z,27.60
2018-05-06T12:38:10.383Z,27.30
2018-05-06T12:40:37.822Z,27.70
2018-05-06T12:43:05.378Z,27.70
2018-05-06T12:45:32.839Z,27.70
2018-05-06T12:48:00.294Z,28.10
2018-05-06T12:50:27.846Z,28.20
2018-05-06T12:52:55.281Z,27.90
2018-05-06T12:55:22.806Z,28.00
2018-05-06T12:57:50.182Z,28.00
2018-05-06T13:00:17.641Z,28.00
2018-05-06T13:02:46.041Z,27.90
2018-05-06T13:05:13.567Z,27.90
2018-05-06T13:07:41.061Z,28.10
2018-05-06T13:10:08.629Z,28.30
2018-05-06T13:12:36.181Z,28.10
2018-05-06T13:15:03.750Z,28.10
2018-05-06T13:17:31.197Z,28.00
2018-05-06T13:19:58.755Z,27.90
2018-05-06T13:22:26.196Z,27.90
2018-05-06T13:24:53.650Z,27.80
2018-05-06T13:27:21.112Z,27.70
2018-05-06T13:29:48.558Z,27.50
2018-05-06T13:32:16.015Z,27.30
2018-05-06T13:34:43.494Z,27.50
2018-05-06T13:37:10.942Z,27.70
2018-05-06T13:39:38.387Z,27.90
2018-05-06T13:42:05.874Z,28.10
2018-05-06T13:44:34.136Z,27.80
2018-05-06T13:47:01.570Z,27.80
2018-05-06T13:49:29.159Z,27.60
2018-05-06T13:51:56.697Z,27.50
2018-05-06T13:54:24.184Z,27.30
2018-05-06T13:56:52.392Z,27.80
2018-05-06T13:59:19.846Z,27.80
2018-05-06T14:01:47.401Z,27.70
2018-05-06T14:04:14.885Z,27.50
2018-05-06T14:06:42.346Z,27.60
2018-05-06T14:09:09.807Z,27.80
2018-05-06T14:11:37.253Z,27.60
2018-05-06T14:14:04.807Z,27.40
2018-05-06T14:16:32.375Z,27.50
2018-05-06T14:18:59.818Z,27.20
2018-05-06T14:21:27.276Z,27.30
2018-05-06T14:23:54.744Z,27.40
2018-05-06T14:26:22.474Z,27.20
2018-05-06T14:28:49.949Z,27.30
2018-05-06T14:31:17.393Z,27.50
2018-05-06T14:33:44.854Z,27.10
2018-05-06T14:36:12.300Z,27.10
2018-05-06T14:38:39.767Z,27.30
2018-05-06T14:41:07.326Z,27.20
2018-05-06T14:43:34.861Z,27.30
2018-05-06T14:46:02.288Z,27.30
2018-05-06T14:48:29.859Z,27.20
2018-05-06T14:50:57.266Z,27.30
2018-05-06T14:53:25.013Z,27.40
2018-05-06T14:55:52.469Z,27.30
2018-05-06T14:58:19.910Z,27.20
2018-05-06T15:00:47.388Z,27.10
2018-05-06T15:03:14.838Z,27.10
2018-05-06T15:05:42.598Z,27.00
2018-05-06T15:08:10.048Z,27.00
2018-05-06T15:10:37.507Z,26.90
2018-05-06T15:13:04.942Z,27.10
2018-05-06T15:15:32.396Z,26.80
2018-05-06T15:17:59.862Z,27.00
2018-05-06T15:20:27.331Z,27.00
2018-05-06T15:22:54.790Z,26.90
2018-05-06T15:25:22.233Z,26.90
2018-05-06T15:27:49.678Z,27.10
2018-05-06T15:30:17.149Z,27.00
2018-05-06T15:32:44.591Z,27.00
2018-05-06T15:35:12.085Z,26.80
2018-05-06T15:37:39.621Z,26.60
2018-05-06T15:40:07.078Z,26.60
2018-05-06T15:42:34.535Z,26.70
2018-05-06T15:45:01.982Z,26.60
2018-05-06T15:47:29.548Z,26.60
2018-05-06T15:49:56.985Z,26.30
2018-05-06T15:52:24.570Z,26.10
2018-05-06T15:54:52.022Z,26.20
2018-05-06T15:57:19.457Z,26.20
2018-05-06T15:59:46.914Z,26.00
2018-05-06T16:05:33.593Z,26.10
2018-05-06T16:08:01.828Z,26.10
2018-05-06T16:10:29.282Z,26.10
2018-05-06T16:12:59.943Z,25.90
2018-05-06T16:15:27.370Z,26.00
2018-05-06T16:17:54.828Z,26.00
2018-05-06T16:20:22.401Z,26.10
2018-05-06T16:22:49.956Z,25.90
2018-05-06T16:25:17.405Z,25.90
2018-05-06T16:27:44.850Z,25.80
2018-05-06T16:30:12.313Z,25.70
2018-05-06T16:32:42.748Z,25.60
2018-05-06T16:35:10.192Z,25.60
2018-05-06T16:37:37.645Z,25.50
2018-05-06T16:40:05.856Z,25.40
2018-05-06T16:42:33.308Z,25.40
2018-05-06T16:45:01.528Z,25.30
2018-05-06T16:47:29.000Z,25.30
2018-05-06T16:49:57.273Z,25.40
2018-05-06T16:52:24.749Z,25.30
2018-05-06T16:54:53.959Z,25.10
2018-05-06T16:57:22.580Z,24.90
2018-05-06T16:59:50.068Z,24.90
2018-05-06T17:02:17.515Z,25.00
2018-05-06T17:04:45.079Z,24.90
2018-05-06T17:07:12.509Z,24.90
2018-05-06T17:09:40.867Z,24.80
2018-05-06T17:12:08.370Z,24.90
2018-05-06T17:14:35.847Z,24.80
2018-05-06T17:17:03.309Z,24.70
2018-05-06T17:19:31.617Z,24.60
2018-05-06T17:21:59.116Z,24.60
2018-05-06T17:24:26.562Z,24.60
2018-05-06T17:26:54.113Z,24.50
2018-05-06T17:29:21.673Z,24.40
2018-05-06T17:31:49.113Z,24.20
2018-05-06T17:34:16.590Z,24.20
2018-05-06T17:36:44.134Z,24.20
2018-05-06T17:39:11.661Z,24.10
2018-05-06T17:41:40.075Z,24.00
2018-05-06T17:44:08.520Z,24.00
2018-05-06T17:46:36.035Z,24.00
2018-05-06T17:49:03.463Z,23.90
2018-05-06T17:51:31.179Z,23.80
2018-05-06T17:53:58.632Z,23.70
2018-05-06T17:56:27.173Z,23.70
2018-05-06T17:58:54.637Z,23.70
2018-05-06T18:01:22.173Z,23.60
2018-05-06T18:03:49.638Z,23.60
2018-05-06T18:06:17.081Z,23.50
2018-05-06T18:08:44.573Z,23.40
2018-05-06T18:11:12.033Z,23.20
2018-05-06T18:13:39.576Z,23.10
2018-05-06T18:16:07.734Z,23.00
2018-05-06T18:18:35.290Z,22.90
2018-05-06T18:21:02.837Z,22.90
2018-05-06T18:23:30.310Z,22.90
2018-05-06T18:25:58.079Z,22.70
2018-05-06T18:28:25.543Z,22.70
2018-05-06T18:30:53.073Z,22.70
2018-05-06T18:33:20.542Z,22.50
2018-05-06T18:35:48.002Z,22.50
2018-05-06T18:38:15.466Z,22.30
2018-05-06T18:40:43.035Z,22.30
2018-05-06T18:43:11.673Z,22.00
2018-05-06T18:45:40.168Z,22.00
2018-05-06T18:48:07.725Z,21.90
2018-05-06T18:50:35.286Z,21.90
2018-05-06T18:53:02.846Z,21.80
2018-05-06T18:55:30.410Z,21.70
2018-05-06T18:57:57.875Z,21.50
2018-05-06T19:00:26.347Z,21.50
2018-05-06T19:02:53.812Z,21.30
2018-05-06T19:05:22.024Z,21.00
2018-05-06T19:07:50.417Z,21.00
2018-05-06T19:10:17.893Z,21.00
2018-05-06T19:12:45.342Z,20.90
2018-05-06T19:15:13.185Z,20.90
2018-05-06T19:17:40.662Z,20.80
2018-05-06T19:20:08.138Z,20.80
2018-05-06T19:22:35.652Z,20.70
2018-05-06T19:25:03.120Z,20.60
2018-05-06T19:27:30.575Z,20.50
2018-05-06T19:29:58.031Z,20.20
2018-05-06T19:32:25.502Z,20.20
2018-05-06T19:34:52.995Z,20.20
2018-05-06T19:37:20.498Z,20.10
2018-05-06T19:39:48.007Z,19.90
2018-05-06T19:42:15.432Z,19.80
2018-05-06T19:44:42.883Z,19.70
2018-05-06T19:47:10.452Z,19.60
2018-05-06T19:49:38.987Z,19.40
2018-05-06T19:52:07.407Z,19.40
2018-05-06T19:54:35.886Z,19.20
2018-05-06T19:57:03.350Z,19.10
2018-05-06T19:59:31.816Z,19.00
2018-05-06T20:01:59.270Z,18.80
2018-05-06T20:04:26.745Z,18.70
2018-05-06T20:06:54.932Z,18.60
2018-05-06T20:09:23.178Z,18.60
2018-05-06T20:11:50.643Z,18.50
2018-05-06T20:14:18.099Z,18.50
2018-05-06T20:16:45.599Z,18.50
2018-05-06T20:19:13.102Z,18.40
2018-05-06T20:21:40.609Z,18.30
2018-05-06T20:24:08.850Z,18.10
2018-05-06T20:26:36.323Z,18.10
2018-05-06T20:29:04.582Z,18.10
2018-05-06T20:31:32.150Z,18.10
2018-05-06T20:34:01.320Z,18.10
2018-05-06T20:36:28.790Z,18.10
2018-05-06T20:38:56.430Z,18.10
2018-05-06T20:41:24.074Z,18.20
2018-05-06T20:43:51.630Z,18.20
2018-05-06T20:46:19.223Z,18.20
2018-05-06T20:48:46.701Z,18.20
2018-05-06T20:51:14.941Z,18.10
2018-05-06T20:53:46.155Z,18.10
2018-05-06T20:56:13.833Z,18.10
2018-05-06T20:58:43.147Z,18.00
2018-05-06T21:01:10.640Z,18.00
2018-05-06T21:03:38.890Z,18.00
2018-05-06T21:06:06.348Z,17.90
2018-05-06T21:08:33.899Z,17.90
2018-05-06T21:11:01.459Z,17.70
2018-05-06T21:13:29.006Z,17.70
2018-05-06T21:15:56.489Z,17.80
2018-05-06T21:18:24.028Z,17.80
2018-05-06T21:20:51.595Z,17.80
2018-05-06T21:23:19.174Z,17.70
2018-05-06T21:25:47.448Z,17.60
2018-05-06T21:28:15.649Z,17.50
2018-05-06T21:30:43.172Z,17.50
2018-05-06T21:33:10.576Z,17.50
2018-05-06T21:35:38.093Z,17.30
2018-05-06T21:38:05.565Z,17.30
2018-05-06T21:40:33.051Z,17.20
2018-05-06T21:43:01.544Z,17.10
2018-05-06T21:45:29.228Z,16.90
2018-05-06T21:47:56.628Z,16.90
2018-05-06T21:50:24.093Z,16.80
2018-05-06T21:52:51.616Z,16.80
2018-05-06T21:55:19.137Z,16.70
2018-05-06T21:57:46.596Z,16.70
2018-05-06T22:00:14.165Z,16.70
2018-05-06T22:02:41.696Z,16.80
2018-05-06T22:05:09.165Z,16.70
2018-05-06T22:07:36.707Z,16.60
2018-05-06T22:10:04.164Z,16.60
2018-05-06T22:12:31.634Z,16.60
2018-05-06T22:14:59.086Z,16.50
2018-05-06T22:17:26.536Z,16.40
2018-05-06T22:19:53.985Z,16.40
2018-05-06T22:22:21.545Z,16.40
2018-05-06T22:24:49.006Z,16.30
2018-05-06T22:27:16.469Z,16.20
2018-05-06T22:29:43.962Z,16.10
2018-05-06T22:32:12.174Z,16.10
2018-05-06T22:34:39.629Z,16.10
2018-05-06T22:37:07.088Z,16.10
2018-05-06T22:39:34.550Z,16.00
2018-05-06T22:42:02.005Z,16.00
2018-05-06T22:44:29.491Z,16.00
2018-05-06T22:46:57.747Z,15.90
2018-05-06T22:49:25.182Z,15.90
2018-05-06T22:51:52.636Z,16.00
2018-05-06T22:54:20.098Z,16.00
2018-05-06T22:56:47.563Z,15.90
2018-05-06T22:59:15.118Z,16.10
2018-05-06T23:01:42.582Z,16.10
2018-05-06T23:04:10.121Z,16.10
2018-05-06T23:06:37.606Z,16.00
2018-05-06T23:09:05.082Z,16.10
2018-05-06T23:11:32.524Z,16.20
2018-05-06T23:14:00.057Z,16.20
2018-05-06T23:16:27.733Z,16.10
2018-05-06T23:18:55.192Z,16.10
2018-05-06T23:21:24.161Z,15.90
2018-05-06T23:23:51.629Z,15.90
2018-05-06T23:26:19.174Z,15.90
2018-05-06T23:28:46.747Z,15.80
2018-05-06T23:31:14.293Z,15.70
2018-05-06T23:33:41.881Z,15.70
2018-05-06T23:36:10.117Z,15.50
2018-05-06T23:38:37.653Z,15.50
2018-05-06T23:41:05.093Z,15.40
2018-05-06T23:43:32.592Z,15.40
2018-05-06T23:46:00.054Z,15.30
2018-05-06T23:48:27.782Z,15.10
2018-05-06T23:50:55.224Z,15.10
2018-05-06T23:53:22.784Z,15.00
2018-05-06T23:55:50.305Z,14.90
2018-05-06T23:58:18.903Z,14.70
